Time;durP1;ratioP1;P1;durP2;ratioP2;P2;SDS_P1;SDS_P2;PMS_P1;PMS_P2;Temp;Humidity;BMP_temperature;BMP_pressure;BME280_temperature;BME280_humidity;BME280_pressure;Samples;Min_cycle;Max_cycle;Signal;HPM_P1;HPM_P2
2021/06/25 00:00:09;;;;;;;22.90;20.70;;;17.40;99.90;;;;;;5013753;28;20236;-69
2021/06/25 00:02:34;;;;;;;25.27;22.77;;;17.40;99.90;;;;;;5013575;28;20212;-69
2021/06/25 00:05:00;;;;;;;23.73;21.23;;;17.30;99.90;;;;;;5013636;28;20815;-69
2021/06/25 00:07:25;;;;;;;24.37;21.83;;;17.30;99.90;;;;;;5014032;28;20157;-69
2021/06/25 00:09:51;;;;;;;26.73;24.13;;;17.30;99.90;;;;;;5014155;28;20182;-70
2021/06/25 00:12:17;;;;;;;26.00;22.80;;;17.30;99.90;;;;;;5013656;28;20285;-70
2021/06/25 00:14:42;;;;;;;25.43;22.83;;;17.20;99.90;;;;;;5013697;28;20154;-70
2021/06/25 00:17:08;;;;;;;25.20;22.67;;;17.20;99.90;;;;;;5013529;28;20166;-69
2021/06/25 00:19:34;;;;;;;25.07;22.67;;;17.20;99.90;;;;;;5013493;28;20243;-69
2021/06/25 00:22:00;;;;;;;25.47;22.97;;;17.10;99.90;;;;;;5014204;28;20151;-69
2021/06/25 00:24:26;;;;;;;27.27;23.63;;;17.10;99.90;;;;;;5012617;28;20484;-69
2021/06/25 00:26:51;;;;;;;27.20;23.57;;;17.10;99.90;;;;;;5013912;28;20189;-69
2021/06/25 00:29:18;;;;;;;29.33;24.20;;;17.10;99.90;;;;;;5013327;28;20172;-69
2021/06/25 00:31:43;;;;;;;29.57;26.50;;;17.00;99.90;;;;;;5013581;28;20162;-69
2021/06/25 00:34:09;;;;;;;32.77;28.37;;;17.00;99.90;;;;;;5013322;28;20919;-69
2021/06/25 00:36:35;;;;;;;36.33;29.97;;;17.00;99.90;;;;;;5013648;28;20161;-69
2021/06/25 00:39:00;;;;;;;30.87;27.70;;;17.00;99.90;;;;;;5013005;28;20216;-69
2021/06/25 00:41:26;;;;;;;33.73;28.47;;;17.00;99.90;;;;;;5013137;28;20170;-69
2021/06/25 00:43:51;;;;;;;27.83;24.93;;;17.00;99.90;;;;;;5013420;28;20264;-70
2021/06/25 00:46:18;;;;;;;28.90;25.77;;;17.00;99.90;;;;;;5013010;28;20178;-69
2021/06/25 00:48:44;;;;;;;27.90;25.03;;;17.00;99.90;;;;;;5012976;28;20634;-69
2021/06/25 00:51:10;;;;;;;26.60;24.00;;;16.90;99.90;;;;;;5013242;28;20479;-69
2021/06/25 00:53:35;;;;;;;28.10;25.30;;;16.90;99.90;;;;;;5013237;28;20166;-69
2021/06/25 00:56:01;;;;;;;25.10;22.47;;;16.80;99.90;;;;;;5012939;28;20571;-70
2021/06/25 00:58:27;;;;;;;29.00;25.13;;;16.80;99.90;;;;;;5012844;28;20908;-70
2021/06/25 01:00:52;;;;;;;27.80;24.87;;;16.70;99.90;;;;;;5013359;28;20208;-70
2021/06/25 01:03:18;;;;;;;29.67;26.50;;;16.70;99.90;;;;;;5012754;28;20652;-70
2021/06/25 01:05:44;;;;;;;30.57;26.43;;;16.60;99.90;;;;;;5013137;28;20208;-70
2021/06/25 01:08:11;;;;;;;28.37;25.30;;;16.60;99.90;;;;;;5012848;28;20158;-69
2021/06/25 01:10:38;;;;;;;27.17;24.37;;;16.60;99.90;;;;;;5012815;28;20842;-69
2021/06/25 01:13:06;;;;;;;27.67;24.80;;;16.50;99.90;;;;;;5012690;28;20453;-70
2021/06/25 01:15:31;;;;;;;27.93;24.93;;;16.40;99.90;;;;;;5012644;28;20772;-70
2021/06/25 01:17:57;;;;;;;29.97;26.77;;;16.40;99.90;;;;;;5013146;28;20423;-69
2021/06/25 01:20:26;;;;;;;33.03;29.17;;;16.30;99.90;;;;;;5012725;28;20193;-69
2021/06/25 01:22:52;;;;;;;38.40;31.80;;;16.30;99.90;;;;;;5012606;28;20182;-69
2021/06/25 01:27:56;;;;;;;35.00;30.47;;;16.30;99.90;;;;;;5069370;28;20530;-69
2021/06/25 01:30:26;;;;;;;37.97;29.10;;;16.20;99.90;;;;;;5069797;28;20948;-70
2021/06/25 01:32:52;;;;;;;34.80;30.27;;;16.20;99.90;;;;;;5069539;28;20386;-69
2021/06/25 01:35:19;;;;;;;35.20;28.97;;;16.10;99.90;;;;;;5061434;28;20415;-69
2021/06/25 01:37:45;;;;;;;32.80;29.30;;;16.10;99.90;;;;;;5049249;28;20407;-70
2021/06/25 01:40:12;;;;;;;38.33;31.20;;;16.10;99.90;;;;;;5049104;28;20762;-70
2021/06/25 01:42:39;;;;;;;32.23;27.80;;;16.10;99.90;;;;;;5064805;28;20433;-70
2021/06/25 01:45:08;;;;;;;31.87;27.07;;;16.10;99.90;;;;;;5068745;28;20503;-69
2021/06/25 01:47:36;;;;;;;34.87;27.93;;;16.00;99.90;;;;;;5069150;28;20548;-70
2021/06/25 01:50:05;;;;;;;34.03;29.70;;;16.00;99.90;;;;;;5068984;28;20440;-70
2021/06/25 01:52:30;;;;;;;39.60;31.40;;;15.90;99.90;;;;;;5068224;28;20410;-70
2021/06/25 01:54:56;;;;;;;36.17;29.57;;;15.90;99.90;;;;;;5068782;28;20901;-69
2021/06/25 01:57:22;;;;;;;36.07;30.50;;;15.90;99.90;;;;;;5068682;28;20214;-70
2021/06/25 01:59:47;;;;;;;33.23;29.53;;;15.80;99.90;;;;;;5068714;28;20675;-70
2021/06/25 02:02:13;;;;;;;34.33;29.70;;;15.80;99.90;;;;;;5061275;28;20185;-70
2021/06/25 02:04:38;;;;;;;31.63;28.33;;;15.80;99.90;;;;;;5048766;28;20160;-70
2021/06/25 02:07:04;;;;;;;33.47;28.97;;;15.80;99.90;;;;;;5048548;28;20184;-70
2021/06/25 02:09:30;;;;;;;34.30;29.13;;;15.80;99.90;;;;;;5049104;28;20641;-70
2021/06/25 02:11:56;;;;;;;30.23;26.90;;;15.70;99.90;;;;;;5048657;28;20392;-70
2021/06/25 02:14:22;;;;;;;30.93;27.10;;;15.70;99.90;;;;;;5048544;28;20163;-69
2021/06/25 02:16:48;;;;;;;28.83;25.87;;;15.70;99.90;;;;;;5048708;28;20519;-69
2021/06/25 02:19:13;;;;;;;29.90;26.67;;;15.60;99.90;;;;;;5048441;28;20391;-70
2021/06/25 02:21:39;;;;;;;34.07;27.23;;;15.60;99.90;;;;;;5048249;28;20255;-70
2021/06/25 02:24:05;;;;;;;33.17;28.40;;;15.60;99.90;;;;;;5048219;28;20221;-70
2021/06/25 02:26:31;;;;;;;29.63;26.60;;;15.50;99.90;;;;;;5048725;28;20258;-70
2021/06/25 02:28:56;;;;;;;32.67;29.23;;;15.50;99.90;;;;;;5048459;28;20414;-70
2021/06/25 02:31:22;;;;;;;31.93;28.53;;;15.50;99.90;;;;;;5048478;28;20624;-69
2021/06/25 02:33:48;;;;;;;33.67;28.67;;;15.50;99.90;;;;;;5048170;28;20612;-70
2021/06/25 02:36:13;;;;;;;32.00;28.50;;;15.40;99.90;;;;;;5048249;28;20249;-70
2021/06/25 02:38:39;;;;;;;30.47;27.37;;;15.40;99.90;;;;;;5038473;28;20244;-70
2021/06/25 02:41:04;;;;;;;32.10;28.50;;;15.40;99.90;;;;;;5037419;28;20175;-70
2021/06/25 02:43:30;;;;;;;34.17;29.40;;;15.30;99.90;;;;;;5045435;28;20236;-70
2021/06/25 02:45:56;;;;;;;32.60;28.80;;;15.30;99.90;;;;;;5044632;28;20289;-70
2021/06/25 02:48:21;;;;;;;33.27;28.87;;;15.30;99.90;;;;;;5054633;28;20154;-70
2021/06/25 02:50:47;;;;;;;34.70;28.67;;;15.20;99.90;;;;;;5054512;28;20386;-70
2021/06/25 02:53:13;;;;;;;31.10;27.13;;;15.20;99.90;;;;;;5054334;28;20233;-70
2021/06/25 02:55:50;;;;;;;33.27;28.67;;;15.20;99.90;;;;;;5035418;28;20163;-72
2021/06/25 02:58:17;;;;;;;37.10;29.17;;;15.20;99.90;;;;;;5034485;28;20169;-72
2021/06/25 03:00:43;;;;;;;32.20;28.80;;;15.10;99.90;;;;;;5034330;28;20419;-73
2021/06/25 03:03:09;;;;;;;32.23;28.73;;;15.10;99.90;;;;;;5019576;28;20476;-73
2021/06/25 03:05:35;;;;;;;33.27;29.77;;;15.10;99.90;;;;;;5014372;28;20164;-73
2021/06/25 03:08:00;;;;;;;38.40;31.67;;;15.10;99.90;;;;;;5014470;28;20183;-73
2021/06/25 03:10:26;;;;;;;35.47;27.93;;;15.00;99.90;;;;;;5014418;28;20269;-73
2021/06/25 03:12:51;;;;;;;33.17;29.73;;;15.00;99.90;;;;;;5014481;28;20161;-72
2021/06/25 03:15:17;;;;;;;32.60;29.20;;;15.00;99.90;;;;;;5014411;28;20637;-72
2021/06/25 03:17:42;;;;;;;34.87;29.70;;;15.00;99.90;;;;;;5015233;28;20661;-73
2021/06/25 03:20:08;;;;;;;33.10;29.50;;;14.90;99.90;;;;;;5014206;28;20278;-73
2021/06/25 03:22:34;;;;;;;34.43;29.47;;;14.90;99.90;;;;;;5014264;28;20779;-73
2021/06/25 03:25:00;;;;;;;33.63;30.03;;;14.90;99.90;;;;;;5014378;28;20420;-73
2021/06/25 03:27:26;;;;;;;35.73;28.50;;;14.90;99.90;;;;;;5013906;28;20626;-72
2021/06/25 03:29:51;;;;;;;32.57;29.10;;;14.80;99.90;;;;;;5014216;28;20159;-72
2021/06/25 03:32:17;;;;;;;33.17;29.50;;;14.80;99.90;;;;;;5014264;28;20249;-72
2021/06/25 03:34:43;;;;;;;36.40;28.53;;;14.80;99.90;;;;;;5014486;28;20576;-72
2021/06/25 03:37:09;;;;;;;36.33;31.80;;;14.80;99.90;;;;;;5012682;28;20216;-72
2021/06/25 03:39:34;;;;;;;34.67;30.23;;;14.80;99.90;;;;;;5022606;28;20512;-72
2021/06/25 03:42:00;;;;;;;30.83;27.50;;;14.80;99.90;;;;;;5023320;28;20183;-72
2021/06/25 03:44:25;;;;;;;36.20;29.03;;;14.80;99.90;;;;;;5022902;28;20262;-72
2021/06/25 03:46:51;;;;;;;34.07;30.67;;;14.70;99.90;;;;;;5023903;28;20239;-72
2021/06/25 03:49:16;;;;;;;33.87;29.93;;;14.70;99.90;;;;;;5020775;28;20207;-73
2021/06/25 03:51:42;;;;;;;34.23;29.10;;;14.70;99.90;;;;;;5014116;28;20175;-73
2021/06/25 03:54:07;;;;;;;32.43;28.90;;;14.70;99.90;;;;;;5013481;28;20159;-73
2021/06/25 03:56:33;;;;;;;33.17;29.43;;;14.70;99.90;;;;;;5018364;28;20179;-73
2021/06/25 03:58:59;;;;;;;33.13;29.73;;;14.70;99.90;;;;;;5033291;28;20709;-72
2021/06/25 04:01:24;;;;;;;33.73;30.00;;;14.70;99.90;;;;;;5032592;28;20155;-72
2021/06/25 04:03:50;;;;;;;34.93;31.23;;;14.70;99.90;;;;;;5013447;28;20155;-73
2021/06/25 04:06:16;;;;;;;33.43;29.80;;;14.70;99.90;;;;;;5013580;28;20204;-73
2021/06/25 04:08:41;;;;;;;30.97;27.20;;;14.70;99.90;;;;;;5014172;28;20653;-73
2021/06/25 04:11:07;;;;;;;32.07;28.67;;;14.70;99.90;;;;;;5013493;28;20155;-73
2021/06/25 04:13:34;;;;;;;30.20;27.20;;;14.80;99.90;;;;;;5013459;28;20160;-72
2021/06/25 04:16:00;;;;;;;33.97;28.10;;;14.80;99.90;;;;;;5013740;28;20502;-72
2021/06/25 04:18:26;;;;;;;34.87;29.50;;;14.80;99.90;;;;;;5013168;28;20404;-72
2021/06/25 04:20:53;;;;;;;31.90;28.17;;;14.80;99.90;;;;;;5013321;28;20393;-72
2021/06/25 04:23:19;;;;;;;34.10;27.43;;;14.80;99.90;;;;;;5013673;28;20157;-72
2021/06/25 04:25:46;;;;;;;33.30;26.33;;;14.90;99.90;;;;;;5017021;28;20421;-73
2021/06/25 04:28:12;;;;;;;30.40;26.30;;;14.90;99.90;;;;;;5037372;28;20517;-73
2021/06/25 04:30:40;;;;;;;29.77;26.50;;;15.00;99.90;;;;;;5020080;28;20427;-73
2021/06/25 04:33:08;;;;;;;29.57;25.63;;;15.10;99.90;;;;;;5020601;28;20915;-73
2021/06/25 04:35:34;;;;;;;32.77;25.90;;;15.20;99.90;;;;;;5021520;28;20425;-72
2021/06/25 04:38:02;;;;;;;28.80;25.80;;;15.20;99.90;;;;;;5017795;28;20784;-72
2021/06/25 04:40:30;;;;;;;26.97;24.00;;;15.30;99.90;;;;;;5021227;28;20951;-72
2021/06/25 04:42:56;;;;;;;27.60;24.80;;;15.40;99.90;;;;;;5020199;28;20874;-72
2021/06/25 04:45:22;;;;;;;26.60;23.77;;;15.40;99.90;;;;;;5021961;28;20452;-73
2021/06/25 04:47:48;;;;;;;27.77;24.90;;;15.50;99.90;;;;;;5021251;28;20227;-73
2021/06/25 04:50:13;;;;;;;26.77;24.00;;;15.50;99.90;;;;;;5023520;28;20220;-73
2021/06/25 04:52:39;;;;;;;32.03;25.30;;;15.60;99.90;;;;;;5025165;28;20180;-73
2021/06/25 04:55:07;;;;;;;30.40;24.40;;;15.60;99.90;;;;;;5012868;28;20828;-73
2021/06/25 04:57:32;;;;;;;27.23;24.47;;;15.70;99.90;;;;;;5014658;28;20435;-73
2021/06/25 04:59:58;;;;;;;29.50;23.73;;;15.70;99.90;;;;;;5028850;28;20550;-73
2021/06/25 05:02:23;;;;;;;31.63;24.50;;;15.80;99.90;;;;;;5012346;28;20189;-73
2021/06/25 05:04:49;;;;;;;24.97;22.37;;;15.90;99.90;;;;;;5012735;28;20519;-73
2021/06/25 05:07:15;;;;;;;24.67;22.17;;;16.00;99.90;;;;;;5012600;28;20208;-73
2021/06/25 05:09:40;;;;;;;24.87;22.20;;;16.00;99.90;;;;;;5012425;28;20248;-73
2021/06/25 05:12:06;;;;;;;29.50;22.47;;;16.10;99.90;;;;;;5013057;28;20396;-73
2021/06/25 05:14:32;;;;;;;28.57;23.67;;;16.20;99.90;;;;;;5026683;28;20544;-73
2021/06/25 05:16:58;;;;;;;27.03;24.23;;;16.30;99.90;;;;;;5018710;28;20417;-73
2021/06/25 05:19:23;;;;;;;24.70;22.00;;;16.30;99.90;;;;;;5012381;28;20169;-73
2021/06/25 05:21:49;;;;;;;27.97;23.50;;;16.40;99.90;;;;;;5013386;28;20192;-73
2021/06/25 05:24:14;;;;;;;28.43;22.80;;;16.40;99.90;;;;;;5027341;28;20176;-73
2021/06/25 05:26:40;;;;;;;24.33;21.80;;;16.50;99.90;;;;;;5024135;28;20213;-72
2021/06/25 05:29:05;;;;;;;25.63;22.83;;;16.50;99.90;;;;;;5012314;28;20503;-72
2021/06/25 05:31:31;;;;;;;27.77;24.87;;;16.60;99.90;;;;;;5010944;28;20169;-72
2021/06/25 05:33:57;;;;;;;29.87;24.43;;;16.70;99.90;;;;;;5031150;28;20177;-73
2021/06/25 05:36:23;;;;;;;32.13;26.40;;;16.90;99.90;;;;;;5022263;28;20177;-73
2021/06/25 05:38:49;;;;;;;31.60;26.33;;;16.90;99.90;;;;;;5012247;28;20476;-73
2021/06/25 05:41:14;;;;;;;30.17;26.87;;;17.00;99.90;;;;;;5017445;28;20631;-73
2021/06/25 05:43:41;;;;;;;34.73;26.63;;;17.00;99.90;;;;;;5015714;28;20177;-73
2021/06/25 05:46:07;;;;;;;32.07;26.90;;;17.10;99.90;;;;;;5018264;28;20193;-73
2021/06/25 05:48:33;;;;;;;35.13;29.20;;;17.10;99.90;;;;;;5025730;28;20493;-73
2021/06/25 05:50:59;;;;;;;28.80;25.73;;;17.20;99.90;;;;;;5017959;28;20230;-73
2021/06/25 05:53:25;;;;;;;29.60;26.37;;;17.30;99.90;;;;;;5028497;28;20185;-73
2021/06/25 05:55:51;;;;;;;38.20;28.50;;;17.40;99.90;;;;;;5019491;28;20185;-73
2021/06/25 05:58:17;;;;;;;30.63;26.83;;;17.40;99.90;;;;;;5018875;28;20518;-73
2021/06/25 06:00:43;;;;;;;29.77;25.80;;;17.50;99.90;;;;;;5014212;28;20197;-73
2021/06/25 06:03:08;;;;;;;33.63;28.40;;;17.50;99.90;;;;;;5023693;28;20189;-73
2021/06/25 06:05:35;;;;;;;34.50;27.37;;;17.50;99.90;;;;;;5031370;28;21153;-73
2021/06/25 06:08:02;;;;;;;33.77;28.03;;;17.60;99.90;;;;;;5026639;28;20181;-73
2021/06/25 06:10:28;;;;;;;30.07;26.73;;;17.60;99.90;;;;;;5028634;28;20453;-73
2021/06/25 06:12:54;;;;;;;39.83;29.30;;;17.60;99.90;;;;;;5017526;28;20825;-73
2021/06/25 06:15:19;;;;;;;37.30;28.90;;;17.60;99.90;;;;;;5030729;28;20235;-73
2021/06/25 06:17:48;;;;;;;32.80;27.50;;;17.70;99.90;;;;;;5025657;28;20247;-73
2021/06/25 06:20:19;;;;;;;32.97;26.97;;;17.70;99.90;;;;;;5028253;28;20189;-73
2021/06/25 06:31:22;;;;;;;25.70;22.93;;;18.00;99.90;;;;;;5047055;28;20427;-73
2021/06/25 06:36:30;;;;;;;13.13;11.83;;;18.30;99.90;;;;;;5066652;28;20586;-72
2021/06/25 06:38:58;;;;;;;14.10;12.70;;;18.40;99.90;;;;;;5068177;28;20382;-72
2021/06/25 06:41:24;;;;;;;14.83;13.07;;;18.50;99.90;;;;;;5064444;28;20849;-72
2021/06/25 06:43:49;;;;;;;13.27;9.33;;;18.70;99.90;;;;;;5067612;28;20462;-72
2021/06/25 06:46:16;;;;;;;11.47;10.27;;;18.80;99.90;;;;;;5063817;28;20422;-72
2021/06/25 06:48:44;;;;;;;11.43;10.33;;;19.00;99.90;;;;;;5054124;28;20179;-72
2021/06/25 06:51:11;;;;;;;11.43;10.23;;;19.10;99.90;;;;;;5064460;28;20504;-72
2021/06/25 06:53:42;;;;;;;12.50;10.70;;;19.20;99.90;;;;;;5069670;28;20412;-72
2021/06/25 06:56:10;;;;;;;11.17;10.13;;;19.30;99.90;;;;;;5067432;28;20445;-72
2021/06/25 06:58:35;;;;;;;11.63;9.97;;;19.30;99.40;;;;;;5058409;28;20453;-72
2021/06/25 07:01:01;;;;;;;12.20;11.00;;;19.40;99.40;;;;;;5051049;28;20931;-72
2021/06/25 07:03:26;;;;;;;13.10;11.50;;;19.40;99.90;;;;;;5060764;28;20207;-72
2021/06/25 07:05:52;;;;;;;13.90;12.57;;;19.50;99.90;;;;;;5054956;28;20241;-72
2021/06/25 07:08:17;;;;;;;13.83;11.70;;;19.60;99.90;;;;;;5057168;28;20233;-72
2021/06/25 07:10:43;;;;;;;11.97;10.10;;;19.60;99.90;;;;;;5066958;28;20159;-72
2021/06/25 07:13:09;;;;;;;12.73;11.43;;;19.70;99.90;;;;;;5053606;28;20298;-72
2021/06/25 07:15:36;;;;;;;14.10;12.80;;;19.80;99.90;;;;;;5058735;28;20203;-72
2021/06/25 07:18:02;;;;;;;13.47;11.47;;;19.90;99.90;;;;;;5050526;28;20171;-72
2021/06/25 07:20:28;;;;;;;13.00;10.60;;;20.00;99.90;;;;;;5057999;28;20421;-72
2021/06/25 07:22:53;;;;;;;12.30;11.10;;;20.20;99.90;;;;;;5057359;28;20176;-72
2021/06/25 07:25:19;;;;;;;12.53;11.30;;;20.30;99.90;;;;;;5062422;28;20194;-72
2021/06/25 07:27:44;;;;;;;13.87;12.27;;;20.60;99.90;;;;;;5055751;28;20180;-72
2021/06/25 07:30:11;;;;;;;13.17;11.60;;;21.30;99.40;;;;;;5051453;28;20211;-72
2021/06/25 07:32:36;;;;;;;14.10;12.57;;;22.10;98.10;;;;;;5060609;28;20234;-72
2021/06/25 07:35:03;;;;;;;17.87;11.60;;;22.80;95.30;;;;;;5053837;28;20485;-73
2021/06/25 07:37:28;;;;;;;16.73;10.50;;;23.50;93.20;;;;;;5068098;28;20207;-72
2021/06/25 07:39:54;;;;;;;17.63;13.70;;;24.30;92.30;;;;;;5067897;28;20439;-73
2021/06/25 07:42:21;;;;;;;16.20;12.03;;;25.20;89.30;;;;;;5068104;28;20168;-73
2021/06/25 07:44:50;;;;;;;13.23;11.90;;;26.20;80.60;;;;;;5056707;28;20184;-73
2021/06/25 07:47:15;;;;;;;13.20;12.00;;;27.00;75.50;;;;;;5056714;28;20402;-73
2021/06/25 07:49:41;;;;;;;12.67;10.33;;;27.90;69.30;;;;;;5053258;28;20418;-74
2021/06/25 07:52:06;;;;;;;13.00;11.60;;;28.50;64.10;;;;;;5054999;28;20644;-74
2021/06/25 07:54:32;;;;;;;12.43;11.20;;;29.10;59.20;;;;;;5054611;28;20587;-74
2021/06/25 07:56:57;;;;;;;13.03;10.70;;;29.50;55.90;;;;;;5054465;28;20159;-74
2021/06/25 07:59:23;;;;;;;13.10;10.70;;;29.50;54.10;;;;;;5054318;28;20188;-74
2021/06/25 08:01:49;;;;;;;12.93;11.50;;;29.50;54.60;;;;;;5054410;28;20180;-74
2021/06/25 08:04:14;;;;;;;10.20;9.20;;;29.30;52.60;;;;;;5054086;28;20148;-74
2021/06/25 08:06:40;;;;;;;10.90;9.90;;;29.40;53.60;;;;;;5052546;28;20168;-74
2021/06/25 08:09:07;;;;;;;10.70;9.40;;;29.30;53.60;;;;;;5052998;28;20185;-74
2021/06/25 08:11:32;;;;;;;11.33;10.33;;;29.20;53.50;;;;;;5046337;28;20171;-74
2021/06/25 08:13:58;;;;;;;11.80;10.23;;;29.20;53.00;;;;;;5039625;28;20422;-74
2021/06/25 08:16:24;;;;;;;10.87;9.80;;;29.40;53.30;;;;;;5053603;28;20184;-74
2021/06/25 08:18:56;;;;;;;11.60;10.17;;;29.70;52.50;;;;;;5037971;28;20177;-74
2021/06/25 08:21:24;;;;;;;12.63;10.50;;;30.00;51.10;;;;;;5034395;28;20400;-74
2021/06/25 08:23:50;;;;;;;17.93;11.53;;;30.50;50.60;;;;;;5035086;28;20455;-74
2021/06/25 08:26:16;;;;;;;10.83;9.10;;;31.00;49.20;;;;;;5033988;28;20834;-74
2021/06/25 08:28:42;;;;;;;11.20;10.17;;;31.30;48.80;;;;;;5033615;28;20618;-74
2021/06/25 08:31:07;;;;;;;12.33;11.07;;;31.70;47.20;;;;;;5033811;28;20162;-75
2021/06/25 08:33:33;;;;;;;12.53;11.20;;;32.20;46.30;;;;;;5034368;28;20222;-74
2021/06/25 08:35:58;;;;;;;11.53;10.20;;;32.50;45.30;;;;;;5034024;28;20708;-74
2021/06/25 08:38:24;;;;;;;11.60;9.53;;;32.90;44.90;;;;;;5033653;28;20523;-75
2021/06/25 08:40:50;;;;;;;11.93;10.87;;;32.90;43.20;;;;;;5034198;28;20219;-74
2021/06/25 08:43:16;;;;;;;12.70;11.50;;;32.40;43.70;;;;;;5053191;28;20214;-75
2021/06/25 08:45:42;;;;;;;11.13;10.13;;;31.70;44.70;;;;;;5042022;28;20263;-74
2021/06/25 08:48:09;;;;;;;15.60;10.13;;;31.50;46.40;;;;;;5052624;28;20438;-75
2021/06/25 08:50:39;;;;;;;11.07;9.97;;;31.50;46.50;;;;;;5053487;28;20402;-75
2021/06/25 08:53:06;;;;;;;13.60;11.00;;;31.30;46.50;;;;;;5053169;28;20990;-74
2021/06/25 08:55:32;;;;;;;11.40;10.30;;;31.30;47.20;;;;;;5053316;28;20462;-74
2021/06/25 08:57:57;;;;;;;12.50;10.97;;;31.60;46.30;;;;;;5051819;28;20785;-74
2021/06/25 09:00:23;;;;;;;10.50;9.50;;;31.80;45.20;;;;;;5044449;28;20630;-74
2021/06/25 09:02:49;;;;;;;10.90;9.90;;;31.40;45.60;;;;;;5039440;28;20281;-75
2021/06/25 09:08:01;;;;;;;13.13;10.57;;;31.50;46.00;;;;;;5055319;28;20521;-76
2021/06/25 09:10:42;;;;;;;10.47;9.27;;;32.70;43.60;;;;;;5048800;28;20517;-77
2021/06/25 09:13:11;;;;;;;10.57;9.67;;;33.90;42.60;;;;;;5046938;28;20203;-76
2021/06/25 09:15:38;;;;;;;10.20;9.30;;;34.90;40.10;;;;;;5047509;28;20419;-76
2021/06/25 09:18:05;;;;;;;10.63;9.07;;;35.50;39.10;;;;;;5047271;28;20417;-76
2021/06/25 09:25:57;;;;;;;9.60;8.80;;;36.10;37.20;;;;;;5084132;27;20523;-76
2021/06/25 09:28:41;;;;;;;10.10;9.20;;;35.70;38.10;;;;;;5069706;28;20412;-77
2021/06/25 09:31:16;;;;;;;11.30;8.53;;;35.10;37.20;;;;;;5068454;28;20608;-77
2021/06/25 09:33:46;;;;;;;9.00;8.20;;;34.90;38.20;;;;;;5069138;28;20501;-77
2021/06/25 09:36:30;;;;;;;9.63;8.63;;;34.70;38.10;;;;;;5068284;28;20768;-77
2021/06/25 09:41:45;;;;;;;9.43;8.63;;;34.30;38.10;;;;;;5069261;28;20539;-74
2021/06/25 09:44:16;;;;;;;9.57;8.67;;;33.70;40.00;;;;;;5069406;28;20409;-74
2021/06/25 09:46:43;;;;;;;8.77;8.00;;;33.20;40.70;;;;;;5055075;28;20926;-74
2021/06/25 09:49:13;;;;;;;10.40;9.50;;;32.80;40.90;;;;;;5050068;28;20497;-74
2021/06/25 09:51:51;;;;;;;11.90;9.67;;;32.10;41.20;;;;;;5049382;28;20423;-74
2021/06/25 09:54:17;;;;;;;14.53;10.37;;;31.50;41.90;;;;;;5049462;28;20417;-74
2021/06/25 09:57:05;;;;;;;10.50;9.40;;;30.90;43.40;;;;;;5049248;28;20478;-74
2021/06/25 09:59:37;;;;;;;11.00;9.90;;;30.50;44.70;;;;;;5069509;28;20215;-74
2021/06/25 10:05:11;;;;;;;10.73;9.57;;;30.10;45.30;;;;;;5064456;28;20506;-74
2021/06/25 10:07:36;;;;;;;10.40;9.40;;;29.10;47.50;;;;;;5049488;28;21024;-74
2021/06/25 10:10:08;;;;;;;10.13;9.23;;;28.70;47.70;;;;;;5049872;28;20477;-74
2021/06/25 10:12:37;;;;;;;10.17;9.17;;;28.40;49.30;;;;;;5049714;28;20160;-75
2021/06/25 10:15:03;;;;;;;13.30;11.00;;;28.10;50.00;;;;;;5046782;28;20422;-74
2021/06/25 10:17:29;;;;;;;12.07;11.00;;;28.00;49.60;;;;;;5050180;28;20402;-74
2021/06/25 10:20:03;;;;;;;12.47;10.70;;;28.00;49.70;;;;;;5049862;28;20446;-76
2021/06/25 10:22:29;;;;;;;11.47;10.37;;;27.90;50.20;;;;;;5049248;28;20175;-75
2021/06/25 10:24:56;;;;;;;12.30;11.20;;;27.80;50.20;;;;;;5049384;28;20402;-74
2021/06/25 10:27:23;;;;;;;13.37;12.00;;;27.60;50.60;;;;;;5049336;28;20501;-74
2021/06/25 10:29:50;;;;;;;12.57;11.03;;;27.40;50.50;;;;;;5049868;28;20414;-80
2021/06/25 10:32:18;;;;;;;12.17;10.90;;;27.30;51.60;;;;;;5046352;28;20443;-78
2021/06/25 10:34:45;;;;;;;11.33;10.30;;;27.10;51.90;;;;;;5029611;28;20424;-76
2021/06/25 10:37:16;;;;;;;16.10;11.30;;;27.00;51.80;;;;;;5041304;28;20923;-76
2021/06/25 10:39:41;;;;;;;11.53;10.40;;;26.80;52.20;;;;;;5035448;28;20420;-76
2021/06/25 10:42:09;;;;;;;13.37;12.03;;;26.60;52.80;;;;;;5027070;28;20411;-76
2021/06/25 10:44:40;;;;;;;13.17;11.60;;;26.50;52.90;;;;;;5026877;28;20189;-77
2021/06/25 10:47:25;;;;;;;14.33;10.73;;;26.30;53.10;;;;;;5027478;28;20428;-76
2021/06/25 10:53:01;;;;;;;13.13;12.03;;;26.20;54.20;;;;;;5067140;28;20963;-74
2021/06/25 10:55:27;;;;;;;15.33;13.87;;;25.80;54.40;;;;;;5050390;28;20430;-74
2021/06/25 11:00:52;;;;;;;14.40;13.03;;;25.70;54.50;;;;;;5087913;27;20576;-75
2021/06/25 11:03:42;;;;;;;13.67;12.43;;;25.40;54.70;;;;;;5088603;28;20428;-73
2021/06/25 11:06:29;;;;;;;12.90;11.60;;;25.30;55.00;;;;;;5088818;28;20397;-75
2021/06/25 11:09:09;;;;;;;13.33;12.23;;;25.20;55.20;;;;;;5088495;28;20400;-75
2021/06/25 11:11:35;;;;;;;13.80;12.40;;;25.20;56.90;;;;;;5089759;28;20474;-75
2021/06/25 11:14:01;;;;;;;12.80;11.67;;;25.20;55.40;;;;;;5089227;28;20416;-75
2021/06/25 11:16:27;;;;;;;12.53;11.27;;;25.20;55.90;;;;;;5090084;28;20155;-75
2021/06/25 11:18:53;;;;;;;11.77;10.57;;;25.20;55.70;;;;;;5089434;28;20929;-75
2021/06/25 11:21:19;;;;;;;11.57;10.57;;;25.20;55.50;;;;;;5089514;28;20390;-75
2021/06/25 11:23:46;;;;;;;13.60;12.23;;;25.20;55.10;;;;;;5089368;28;20163;-75
2021/06/25 11:28:54;;;;;;;12.00;10.90;;;25.20;55.30;;;;;;5068917;28;20562;-74
2021/06/25 11:31:26;;;;;;;10.00;9.10;;;25.30;55.50;;;;;;5053168;28;20429;-74
2021/06/25 11:36:52;;;;;;;10.73;9.67;;;25.40;57.20;;;;;;5130274;27;20516;-74
2021/06/25 11:42:00;;;;;;;11.30;10.40;;;25.40;55.00;;;;;;5069517;28;20637;-74
2021/06/25 11:44:32;;;;;;;12.73;11.43;;;25.50;54.50;;;;;;5069650;28;20492;-74
2021/06/25 11:47:02;;;;;;;10.70;9.60;;;25.50;54.70;;;;;;5068174;28;20405;-74
2021/06/25 11:49:49;;;;;;;11.73;10.60;;;25.50;55.50;;;;;;5069181;28;20414;-74
2021/06/25 11:52:19;;;;;;;12.13;11.00;;;25.50;54.40;;;;;;5068279;28;20800;-74
2021/06/25 11:54:50;;;;;;;10.30;9.30;;;25.40;55.20;;;;;;5069575;28;20500;-74
2021/06/25 11:57:22;;;;;;;10.63;9.53;;;25.40;56.10;;;;;;5068600;28;20433;-74
2021/06/25 11:59:58;;;;;;;11.03;9.80;;;25.30;56.00;;;;;;5054901;28;20462;-74
2021/06/25 12:02:24;;;;;;;10.50;9.60;;;25.20;54.60;;;;;;5049014;28;20892;-74
2021/06/25 12:04:51;;;;;;;9.40;8.57;;;25.00;54.90;;;;;;5048930;28;20484;-74
2021/06/25 12:07:19;;;;;;;10.63;9.50;;;25.00;55.50;;;;;;5049029;28;20541;-74
2021/06/25 12:09:50;;;;;;;10.67;9.67;;;24.80;57.70;;;;;;5049594;28;20765;-74
2021/06/25 12:12:29;;;;;;;10.10;9.13;;;24.70;53.80;;;;;;5048893;28;20395;-74
2021/06/25 12:14:58;;;;;;;11.40;10.30;;;24.70;56.80;;;;;;5048901;28;20437;-74
2021/06/25 12:17:25;;;;;;;10.87;9.87;;;24.60;56.80;;;;;;5039304;28;20930;-74
2021/06/25 12:25:36;;;;;;;10.97;9.90;;;24.90;55.10;;;;;;5068686;28;20598;-74
2021/06/25 12:28:22;;;;;;;19.07;10.40;;;24.90;54.60;;;;;;5069416;28;20390;-74
2021/06/25 12:30:53;;;;;;;10.90;9.40;;;24.90;54.60;;;;;;5068323;28;20382;-74
2021/06/25 12:33:23;;;;;;;11.30;9.27;;;25.00;57.30;;;;;;5069558;28;20398;-74
2021/06/25 12:35:51;;;;;;;10.13;9.23;;;25.10;56.40;;;;;;5068508;28;20471;-74
2021/06/25 12:38:20;;;;;;;9.97;9.07;;;25.20;55.80;;;;;;5064039;28;20996;-74
2021/06/25 12:40:49;;;;;;;10.33;9.33;;;25.20;54.20;;;;;;5057475;28;20423;-74
2021/06/25 12:48:55;;;;;;;10.10;9.10;;;25.20;55.50;;;;;;5122910;27;20965;-74
2021/06/25 12:51:23;;;;;;;10.13;9.33;;;25.20;55.80;;;;;;5108552;28;20900;-75
2021/06/25 12:53:51;;;;;;;10.30;9.40;;;25.30;56.90;;;;;;5109549;28;20753;-75
2021/06/25 12:56:21;;;;;;;10.97;9.90;;;25.30;55.10;;;;;;5106704;28;20912;-75
2021/06/25 12:58:55;;;;;;;10.60;9.60;;;25.20;54.40;;;;;;5103892;28;20445;-74
2021/06/25 13:01:21;;;;;;;9.80;8.80;;;25.10;54.70;;;;;;5089624;28;20420;-74
2021/06/25 13:03:47;;;;;;;13.63;8.90;;;25.10;55.60;;;;;;5089358;28;20482;-74
2021/06/25 13:09:20;;;;;;;10.97;9.97;;;25.10;56.10;;;;;;5068969;28;20569;-75
2021/06/25 13:11:47;;;;;;;11.70;10.50;;;25.10;55.00;;;;;;5074897;28;20461;-75
2021/06/25 13:14:33;;;;;;;11.10;10.10;;;25.10;55.50;;;;;;5067929;28;20897;-75
2021/06/25 13:17:03;;;;;;;12.00;10.90;;;25.00;55.60;;;;;;5052969;28;20760;-75
2021/06/25 13:19:52;;;;;;;10.87;9.97;;;24.90;55.50;;;;;;5049293;28;20411;-75
2021/06/25 13:25:25;;;;;;;11.10;10.10;;;24.80;56.20;;;;;;5068050;28;20534;-73
2021/06/25 13:27:51;;;;;;;11.67;10.57;;;24.90;56.50;;;;;;5071911;28;20398;-73